Terminal Aerodrome Forecast
Issued by NWS Sioux Falls, SD

Home | Current Version | Previous Version | Text Only | Print | Product List | Glossary On
Versions: 1 2 3 4 5 6 7 8 9 10 11 12 13 14 15 16 17 18 19 20 21
000
FTUS43 KFSD 222328
TAFFSD
TAF
KFSD 222328Z 2300/2324 35005KT 5SM -RA BR OVC008
      TEMPO 2300/2304 2SM -RASN BR OVC005
     FM230400 01008KT 4SM -SN BR OVC006
     FM231400 35014G20KT 3SM -SN BR OVC008
     FM231800 35018G25KT 6SM -SN OVC010=

USA.gov is the U.S. government's official web portal to all federal, state and local government web resources and services.